createdAt,value
2022-12-14T00:01:08.871Z,98686.00
2022-12-14T00:03:12.075Z,98686.73
2022-12-14T00:05:15.247Z,98680.15
2022-12-14T00:07:17.934Z,98686.10
2022-12-14T00:09:20.693Z,98680.14
2022-12-14T00:11:25.278Z,98679.92
2022-12-14T00:13:27.887Z,98679.48
2022-12-14T00:15:31.022Z,98681.48
2022-12-14T00:17:33.625Z,98679.89
2022-12-14T00:19:36.201Z,98674.89
2022-12-14T00:21:38.863Z,98664.88
2022-12-14T00:23:44.344Z,98660.95
2022-12-14T00:25:49.037Z,98655.41
2022-12-14T00:27:52.323Z,98654.48
2022-12-14T00:29:54.946Z,98651.98
2022-12-14T00:31:57.574Z,98644.00
2022-12-14T00:34:00.484Z,98641.73
2022-12-14T00:36:04.878Z,98643.20
2022-12-14T00:38:07.559Z,98645.20
2022-12-14T00:40:11.393Z,98650.58
2022-12-14T00:42:14.044Z,98656.49
2022-12-14T00:44:16.779Z,98662.01
2022-12-14T00:46:19.454Z,98661.92
2022-12-14T00:48:23.559Z,98664.98
2022-12-14T00:50:26.174Z,98665.48
2022-12-14T00:52:28.830Z,98667.38
2022-12-14T00:54:31.502Z,98666.36
2022-12-14T00:56:34.108Z,98655.28
2022-12-14T00:58:36.838Z,98658.86
2022-12-14T01:00:39.959Z,98653.09
2022-12-14T01:02:42.733Z,98648.48
2022-12-14T01:04:45.460Z,98649.86
2022-12-14T01:06:52.631Z,98646.02
2022-12-14T01:08:55.319Z,98638.75
2022-12-14T01:10:57.945Z,98636.10
2022-12-14T01:13:00.662Z,98628.73
2022-12-14T01:15:04.204Z,98623.08
2022-12-14T01:17:06.807Z,98618.66
2022-12-14T01:19:11.915Z,98620.96
2022-12-14T01:21:17.472Z,98622.34
2022-12-14T01:23:20.119Z,98625.21
2022-12-14T01:25:23.283Z,98623.89
2022-12-14T01:27:25.908Z,98628.53
2022-12-14T01:29:28.683Z,98627.55
2022-12-14T01:31:35.365Z,98630.61
2022-12-14T01:33:38.523Z,98634.85
2022-12-14T01:35:41.227Z,98639.07
2022-12-14T01:37:43.928Z,98634.27
2022-12-14T01:39:46.945Z,98634.30
2022-12-14T01:41:51.740Z,98638.02
2022-12-14T01:43:56.138Z,98633.34
2022-12-14T01:45:58.954Z,98626.02
2022-12-14T01:48:04.807Z,98624.27
2022-12-14T01:50:15.753Z,98622.12
2022-12-14T01:52:21.611Z,98616.23
2022-12-14T01:54:26.433Z,98616.85
2022-12-14T01:56:33.376Z,98611.88
2022-12-14T01:58:36.083Z,98603.86
2022-12-14T02:00:39.992Z,98608.77
2022-12-14T02:02:49.913Z,98608.68
2022-12-14T02:04:57.558Z,98606.81
2022-12-14T02:07:01.404Z,98594.67
2022-12-14T02:09:07.698Z,98584.66
2022-12-14T02:11:10.598Z,98578.11
2022-12-14T02:13:17.537Z,98569.00
2022-12-14T02:15:20.664Z,98558.16
2022-12-14T02:17:23.781Z,98553.88
2022-12-14T02:19:26.693Z,98553.61
2022-12-14T02:21:48.531Z,98555.36
2022-12-14T02:24:20.543Z,98551.77
2022-12-14T02:26:55.537Z,98549.65
2022-12-14T02:29:34.190Z,98547.96
2022-12-14T02:31:46.490Z,98542.27
2022-12-14T02:33:55.706Z,98536.64
2022-12-14T02:36:02.093Z,98532.24
2022-12-14T02:38:13.238Z,98524.84
2022-12-14T02:40:24.727Z,98529.63
2022-12-14T02:42:40.576Z,98535.77
2022-12-14T02:44:55.397Z,98540.10
2022-12-14T02:47:03.523Z,98536.75
2022-12-14T02:49:10.539Z,98536.60
2022-12-14T02:51:22.235Z,98542.72
2022-12-14T02:53:30.964Z,98542.70
2022-12-14T02:55:40.247Z,98534.19
2022-12-14T02:57:49.575Z,98535.54
2022-12-14T02:59:56.369Z,98534.50
2022-12-14T03:02:01.678Z,98528.58
2022-12-14T03:04:05.473Z,98526.48
2022-12-14T03:06:18.142Z,98518.30
2022-12-14T03:08:21.870Z,98524.18
2022-12-14T03:10:32.213Z,98526.30
2022-12-14T03:12:36.991Z,98534.81
2022-12-14T03:14:44.443Z,98536.23
2022-12-14T03:16:51.448Z,98539.80
2022-12-14T03:19:00.090Z,98537.72
2022-12-14T03:21:06.839Z,98535.80
2022-12-14T03:23:14.577Z,98527.65
2022-12-14T03:25:22.172Z,98522.06
2022-12-14T03:27:30.367Z,98514.41
2022-12-14T03:29:38.641Z,98515.69
2022-12-14T03:31:49.169Z,98507.44
2022-12-14T03:33:56.817Z,98510.38
2022-12-14T03:36:04.379Z,98513.21
2022-12-14T03:38:15.664Z,98489.52
2022-12-14T03:40:19.337Z,98484.21
2022-12-14T03:42:28.499Z,98489.73
2022-12-14T03:44:45.205Z,98491.35
2022-12-14T03:47:02.524Z,98488.89
2022-12-14T03:49:18.114Z,98484.56
2022-12-14T03:51:29.161Z,98478.48
2022-12-14T03:53:37.879Z,98469.33
2022-12-14T03:55:49.149Z,98464.90
2022-12-14T03:58:08.684Z,98459.80
2022-12-14T04:00:14.164Z,98458.61
2022-12-14T04:02:25.595Z,98456.83
2022-12-14T04:04:33.918Z,98465.50
2022-12-14T04:06:42.656Z,98457.17
2022-12-14T04:08:52.315Z,98450.85
2022-12-14T04:11:01.031Z,98435.15
2022-12-14T04:13:08.724Z,98437.04
2022-12-14T04:15:18.565Z,98444.11
2022-12-14T04:17:26.887Z,98445.42
2022-12-14T04:19:35.883Z,98438.58
2022-12-14T04:21:43.910Z,98429.41
2022-12-14T04:23:53.024Z,98421.59
2022-12-14T04:25:55.907Z,98421.83
2022-12-14T04:28:03.410Z,98420.57
2022-12-14T04:30:09.889Z,98422.06
2022-12-14T04:32:18.713Z,98426.65
2022-12-14T04:34:25.585Z,98422.70
2022-12-14T04:36:32.515Z,98427.44
2022-12-14T04:38:38.489Z,98430.87
2022-12-14T04:40:47.413Z,98430.90
2022-12-14T04:42:55.028Z,98423.45
2022-12-14T04:45:03.452Z,98411.35
2022-12-14T04:47:09.256Z,98405.63
2022-12-14T04:49:19.518Z,98402.92
2022-12-14T04:51:28.165Z,98401.19
2022-12-14T04:53:33.653Z,98398.55
2022-12-14T04:55:41.137Z,98398.73
2022-12-14T04:57:48.249Z,98392.13
2022-12-14T04:59:51.412Z,98388.84
2022-12-14T05:02:06.517Z,98383.52
2022-12-14T05:04:23.570Z,98370.59
2022-12-14T05:06:34.044Z,98361.73
2022-12-14T05:09:02.549Z,98360.09
2022-12-14T05:11:41.252Z,98350.10
2022-12-14T05:13:40.830Z,98330.39
2022-12-14T05:15:48.896Z,98325.67
2022-12-14T05:17:52.255Z,98334.57
2022-12-14T05:19:54.905Z,98354.72
2022-12-14T05:22:03.279Z,98365.58
2022-12-14T05:24:07.275Z,98372.14
2022-12-14T05:26:09.979Z,98375.27
2022-12-14T05:28:12.668Z,98373.52
2022-12-14T05:30:15.710Z,98364.66
2022-12-14T05:32:18.316Z,98351.58
2022-12-14T05:34:20.947Z,98340.29
2022-12-14T05:36:28.267Z,98338.55
2022-12-14T05:38:30.930Z,98344.45
2022-12-14T05:40:33.560Z,98351.13
2022-12-14T05:42:39.641Z,98353.03
2022-12-14T05:44:46.902Z,98354.18
2022-12-14T05:46:49.736Z,98360.38
2022-12-14T05:48:55.397Z,98356.42
2022-12-14T05:51:05.984Z,98353.07
2022-12-14T05:53:08.687Z,98354.30
2022-12-14T05:55:11.328Z,98353.52
2022-12-14T05:57:13.967Z,98352.57
2022-12-14T05:59:17.429Z,98358.38
2022-12-14T06:01:20.280Z,98367.39
2022-12-14T06:03:23.070Z,98377.41
2022-12-14T06:05:25.996Z,98372.84
2022-12-14T06:07:28.859Z,98360.29
2022-12-14T06:09:31.494Z,98359.71
2022-12-14T06:11:38.170Z,98354.48
2022-12-14T06:13:41.864Z,98355.91
2022-12-14T06:15:44.589Z,98356.09
2022-12-14T06:17:47.397Z,98362.95
2022-12-14T06:19:50.355Z,98363.11
2022-12-14T06:21:53.514Z,98360.74
2022-12-14T06:23:57.353Z,98362.00
2022-12-14T06:26:00.171Z,98357.52
2022-12-14T06:28:02.939Z,98353.27
2022-12-14T06:30:08.705Z,98352.38
2022-12-14T06:32:11.400Z,98352.98
2022-12-14T06:34:14.389Z,98348.13
2022-12-14T06:36:18.801Z,98355.41
2022-12-14T06:38:21.686Z,98354.88
2022-12-14T06:40:24.311Z,98345.05
2022-12-14T06:42:29.802Z,98331.33
2022-12-14T06:44:32.682Z,98324.33
2022-12-14T06:46:36.350Z,98319.63
2022-12-14T06:48:39.372Z,98324.05
2022-12-14T06:50:42.143Z,98328.20
2022-12-14T06:52:47.838Z,98323.65
2022-12-14T06:54:50.436Z,98316.67
2022-12-14T06:56:53.051Z,98314.29
2022-12-14T06:58:56.578Z,98318.10
2022-12-14T07:01:02.988Z,98321.46
2022-12-14T07:03:06.031Z,98326.71
2022-12-14T07:05:09.573Z,98320.67
2022-12-14T07:07:12.292Z,98319.40
2022-12-14T07:09:14.878Z,98317.54
2022-12-14T07:11:17.760Z,98317.40
2022-12-14T07:13:21.243Z,98311.73
2022-12-14T07:15:24.122Z,98304.61
2022-12-14T07:17:26.972Z,98303.58
2022-12-14T07:19:29.728Z,98297.30
2022-12-14T07:21:32.560Z,98286.02
2022-12-14T07:23:36.709Z,98289.48
2022-12-14T07:25:39.514Z,98290.28
2022-12-14T07:27:42.401Z,98287.86
2022-12-14T07:29:47.739Z,98287.02
2022-12-14T07:31:50.408Z,98289.66
2022-12-14T07:33:54.244Z,98290.83
2022-12-14T07:36:03.612Z,98286.89
2022-12-14T07:38:06.308Z,98287.45
2022-12-14T07:40:11.013Z,98293.11
2022-12-14T07:42:13.677Z,98301.31
2022-12-14T07:44:20.497Z,98310.02
2022-12-14T07:46:25.225Z,98304.95
2022-12-14T07:48:28.100Z,98306.45
2022-12-14T07:50:30.766Z,98302.23
2022-12-14T07:52:37.466Z,98302.77
2022-12-14T07:54:41.495Z,98301.70
2022-12-14T07:56:44.365Z,98299.52
2022-12-14T07:58:46.970Z,98310.03
2022-12-14T08:00:49.677Z,98313.66
2022-12-14T08:02:55.034Z,98312.55
2022-12-14T08:04:57.829Z,98306.39
2022-12-14T08:07:00.489Z,98308.86
2022-12-14T08:09:04.189Z,98308.70
2022-12-14T08:11:07.881Z,98311.51
2022-12-14T08:13:10.527Z,98314.55
2022-12-14T08:15:13.225Z,98308.52
2022-12-14T08:17:16.011Z,98305.17
2022-12-14T08:19:19.594Z,98305.02
2022-12-14T08:21:23.280Z,98301.28
2022-12-14T08:23:26.349Z,98293.70
2022-12-14T08:25:29.434Z,98290.88
2022-12-14T08:27:32.153Z,98292.25
2022-12-14T08:29:34.781Z,98297.03
2022-12-14T08:31:37.852Z,98305.46
2022-12-14T08:33:41.934Z,98307.98
2022-12-14T08:35:44.989Z,98312.97
2022-12-14T08:37:47.900Z,98312.02
2022-12-14T08:39:50.633Z,98311.30
2022-12-14T08:41:53.227Z,98309.72
2022-12-14T08:43:57.396Z,98309.78
2022-12-14T08:46:00.276Z,98305.34
2022-12-14T08:48:03.776Z,98307.07
2022-12-14T08:50:08.110Z,98301.67
2022-12-14T08:52:10.971Z,98302.20
2022-12-14T08:54:13.675Z,98303.73
2022-12-14T08:56:19.193Z,98298.79
2022-12-14T08:58:24.905Z,98296.72
2022-12-14T09:00:27.674Z,98300.88
2022-12-14T09:02:30.497Z,98294.49
2022-12-14T09:04:34.972Z,98294.39
2022-12-14T09:06:39.378Z,98295.96
2022-12-14T09:08:42.445Z,98295.34
2022-12-14T09:10:49.446Z,98293.64
2022-12-14T09:12:52.130Z,98291.58
2022-12-14T09:14:54.777Z,98289.70
2022-12-14T09:16:58.163Z,98286.27
2022-12-14T09:19:03.549Z,98286.95
2022-12-14T09:21:07.125Z,98277.73
2022-12-14T09:23:09.756Z,98272.61
2022-12-14T09:25:12.373Z,98268.81
2022-12-14T09:27:14.995Z,98262.39
2022-12-14T09:29:18.839Z,98258.65
2022-12-14T09:31:23.740Z,98261.23
2022-12-14T09:33:27.557Z,98260.64
2022-12-14T09:35:31.617Z,98260.02
2022-12-14T09:37:34.740Z,98255.45
2022-12-14T09:39:37.320Z,98252.75
2022-12-14T09:42:00.592Z,98251.85
2022-12-14T09:44:18.215Z,98249.42
2022-12-14T09:46:34.076Z,98239.64
2022-12-14T09:48:37.263Z,98235.93
2022-12-14T09:50:40.238Z,98226.93
2022-12-14T09:52:46.741Z,98221.81
2022-12-14T09:54:50.265Z,98217.04
2022-12-14T09:56:53.514Z,98217.73
2022-12-14T09:58:58.728Z,98221.81
2022-12-14T10:01:10.485Z,98218.77
2022-12-14T10:03:42.494Z,98212.14
2022-12-14T10:06:03.507Z,98206.05
2022-12-14T10:08:14.033Z,98195.30
2022-12-14T10:10:23.522Z,98188.28
2022-12-14T10:12:40.056Z,98190.79
2022-12-14T10:14:55.960Z,98193.06
2022-12-14T10:17:08.092Z,98193.52
2022-12-14T10:19:25.660Z,98190.08
2022-12-14T10:21:38.566Z,98188.60
2022-12-14T10:23:47.742Z,98193.20
2022-12-14T10:25:54.716Z,98192.52
2022-12-14T10:28:10.742Z,98198.98
2022-12-14T10:30:17.643Z,98188.39
2022-12-14T10:32:24.325Z,98185.73
2022-12-14T10:34:29.930Z,98178.58
2022-12-14T10:36:43.188Z,98178.11
2022-12-14T10:38:56.428Z,98171.67
2022-12-14T10:41:05.218Z,98159.77
2022-12-14T10:43:28.439Z,98153.11
2022-12-14T10:45:40.783Z,98147.13
2022-12-14T10:47:48.779Z,98147.29
2022-12-14T10:49:58.462Z,98134.70
2022-12-14T10:52:04.962Z,98127.17
2022-12-14T10:54:22.352Z,98131.58
2022-12-14T10:56:29.342Z,98123.00
2022-12-14T10:58:32.611Z,98119.60
2022-12-14T11:00:36.182Z,98110.65
2022-12-14T11:02:40.776Z,98101.70
2022-12-14T11:04:48.589Z,98102.54
2022-12-14T11:06:51.348Z,98101.30
2022-12-14T11:08:53.961Z,98099.70
2022-12-14T11:11:09.321Z,98088.84
2022-12-14T11:13:18.899Z,98094.97
2022-12-14T11:15:27.296Z,98095.30
2022-12-14T11:17:35.049Z,98099.17
2022-12-14T11:19:37.913Z,98088.00
2022-12-14T11:21:40.843Z,98086.76
2022-12-14T11:23:44.117Z,98083.30
2022-12-14T11:25:49.376Z,98078.42
2022-12-14T11:27:52.486Z,98078.77
2022-12-14T11:29:55.147Z,98066.08
2022-12-14T11:31:58.797Z,98064.88
2022-12-14T11:34:04.126Z,98063.45
2022-12-14T11:36:08.290Z,98063.83
2022-12-14T11:38:15.906Z,98068.04
2022-12-14T11:40:24.861Z,98064.04
2022-12-14T11:42:28.450Z,98060.45
2022-12-14T11:44:34.257Z,98058.63
2022-12-14T11:46:45.492Z,98056.74
2022-12-14T11:48:48.933Z,98050.02
2022-12-14T11:50:54.156Z,98043.52
2022-12-14T11:53:10.831Z,98041.91
2022-12-14T11:55:20.274Z,98054.29
2022-12-14T11:57:29.940Z,98052.15
2022-12-14T11:59:38.386Z,98046.91
2022-12-14T12:01:41.302Z,98036.83
2022-12-14T12:03:47.615Z,98038.60
2022-12-14T12:05:51.397Z,98034.35
2022-12-14T12:07:56.095Z,98028.55
2022-12-14T12:10:13.353Z,98018.98
2022-12-14T12:12:17.338Z,98019.08
2022-12-14T12:14:29.459Z,98020.38
2022-12-14T12:16:32.471Z,98021.67
2022-12-14T12:18:46.023Z,98010.27
2022-12-14T12:20:54.599Z,98005.64
2022-12-14T12:23:02.051Z,98003.45
2022-12-14T12:25:25.695Z,98006.41
2022-12-14T12:27:30.464Z,98009.95
2022-12-14T12:29:39.730Z,97997.29
2022-12-14T12:31:51.495Z,97992.89
2022-12-14T12:33:59.855Z,97980.40
2022-12-14T12:36:04.688Z,97974.66
2022-12-14T12:38:16.763Z,97987.45
2022-12-14T12:40:27.161Z,98003.98
2022-12-14T12:42:39.905Z,98004.73
2022-12-14T12:44:50.008Z,97980.20
2022-12-14T12:49:25.988Z,97969.40
2022-12-14T12:51:34.318Z,97962.63
2022-12-14T12:53:40.615Z,97961.05
2022-12-14T12:55:48.237Z,97951.77
2022-12-14T12:57:53.432Z,97936.79
2022-12-14T12:59:57.032Z,97930.94
2022-12-14T13:02:10.756Z,97927.11
2022-12-14T13:04:25.725Z,97917.81
2022-12-14T13:06:32.064Z,97914.13
2022-12-14T13:08:38.653Z,97912.72
2022-12-14T13:11:16.861Z,97915.45
2022-12-14T13:13:12.800Z,97920.23
2022-12-14T13:15:22.354Z,97916.32
2022-12-14T13:17:33.073Z,97918.33
2022-12-14T13:19:52.073Z,97916.77
2022-12-14T13:21:59.226Z,97911.12
2022-12-14T13:24:15.552Z,97908.32
2022-12-14T13:26:57.178Z,97902.42
2022-12-14T13:29:08.403Z,97897.13
2022-12-14T13:31:27.737Z,97897.88
2022-12-14T13:33:51.116Z,97892.36
2022-12-14T13:36:16.491Z,97897.60
2022-12-14T13:38:49.500Z,97896.02
2022-12-14T13:41:17.219Z,97894.40
2022-12-14T13:43:37.035Z,97888.09
2022-12-14T13:45:41.619Z,97887.72
2022-12-14T13:47:47.618Z,97885.96
2022-12-14T13:50:34.428Z,97884.34
2022-12-14T13:52:33.152Z,97890.02
2022-12-14T13:54:38.858Z,97883.44
2022-12-14T13:56:41.715Z,97880.41
2022-12-14T13:58:46.917Z,97877.23
2022-12-14T14:00:53.973Z,97873.13
2022-12-14T14:02:56.672Z,97866.47
2022-12-14T14:05:31.579Z,97858.65
2022-12-14T14:07:49.785Z,97857.14
2022-12-14T14:10:02.044Z,97869.05
2022-12-14T14:12:26.857Z,97869.60
2022-12-14T14:14:46.601Z,97868.39
2022-12-14T14:16:54.466Z,97865.38
2022-12-14T14:19:01.093Z,97859.92
2022-12-14T14:21:31.023Z,97855.70
2022-12-14T14:23:35.721Z,97847.04
2022-12-14T14:25:40.540Z,97851.64
2022-12-14T14:27:50.318Z,97846.34
2022-12-14T14:29:55.006Z,97844.15
2022-12-14T14:32:02.681Z,97841.63
2022-12-14T14:34:05.451Z,97839.38
2022-12-14T14:36:09.648Z,97835.98
2022-12-14T14:38:25.094Z,97839.30
2022-12-14T14:41:06.452Z,97838.88
2022-12-14T14:43:03.065Z,97816.39
2022-12-14T14:45:20.861Z,97815.45
2022-12-14T14:47:28.182Z,97823.46
2022-12-14T14:49:35.560Z,97820.14
2022-12-14T14:51:38.262Z,97816.96
2022-12-14T14:53:41.109Z,97812.67
2022-12-14T14:55:54.471Z,97827.27
2022-12-14T14:58:02.944Z,97855.83
2022-12-14T15:00:10.445Z,97857.70
2022-12-14T15:02:27.878Z,97854.73
2022-12-14T15:04:40.226Z,97862.27
2022-12-14T15:06:46.084Z,97864.11
2022-12-14T15:08:52.466Z,97866.01
2022-12-14T15:10:55.963Z,97867.81
2022-12-14T15:13:03.118Z,97872.73
2022-12-14T15:15:14.679Z,97876.39
2022-12-14T15:17:21.360Z,97876.20
2022-12-14T15:19:27.273Z,97866.44
2022-12-14T15:21:32.136Z,97863.34
2022-12-14T15:23:38.041Z,97871.72
2022-12-14T15:25:41.207Z,97882.54
2022-12-14T15:27:45.951Z,97874.38
2022-12-14T15:29:49.665Z,97877.50
2022-12-14T15:31:59.640Z,97874.73
2022-12-14T15:34:03.655Z,97862.66
2022-12-14T15:36:13.596Z,97869.66
2022-12-14T15:38:22.303Z,97865.30
2022-12-14T15:40:27.187Z,97874.40
2022-12-14T15:42:29.952Z,97876.40
2022-12-14T15:44:32.613Z,97882.98
2022-12-14T15:46:38.427Z,97875.04
2022-12-14T15:48:41.054Z,97864.55
2022-12-14T15:50:47.899Z,97851.35
2022-12-14T15:52:53.083Z,97861.70
2022-12-14T15:54:56.490Z,97853.84
2022-12-14T15:57:02.050Z,97847.02
2022-12-14T15:59:15.025Z,97848.64
2022-12-14T16:01:21.979Z,97849.70
2022-12-14T16:03:28.886Z,97849.59
2022-12-14T16:05:34.827Z,97847.34
2022-12-14T16:07:42.098Z,97846.50
2022-12-14T16:09:50.518Z,97846.47
2022-12-14T16:11:56.121Z,97841.83
2022-12-14T16:14:02.516Z,97834.90
2022-12-14T16:16:09.222Z,97831.17
2022-12-14T16:18:13.528Z,97825.27
2022-12-14T16:20:20.942Z,97823.42
2022-12-14T16:22:25.632Z,97816.23
2022-12-14T16:24:28.385Z,97812.11
2022-12-14T16:26:35.120Z,97813.31
2022-12-14T16:28:38.227Z,97822.58
2022-12-14T16:30:54.163Z,97839.40
2022-12-14T16:33:14.880Z,97856.35
2022-12-14T16:35:21.667Z,97851.33
2022-12-14T16:37:33.391Z,97854.50
2022-12-14T16:39:44.480Z,97864.80
2022-12-14T16:41:55.459Z,97871.00
2022-12-14T16:44:00.088Z,97858.50
2022-12-14T16:46:15.772Z,97860.92
2022-12-14T16:48:18.967Z,97873.64
2022-12-14T16:52:47.665Z,97886.10
2022-12-14T16:55:08.760Z,97894.21
2022-12-14T16:57:21.591Z,97896.61
2022-12-14T16:59:29.684Z,97891.77
2022-12-14T17:01:42.810Z,97888.91
2022-12-14T17:03:54.578Z,97882.89
2022-12-14T17:06:01.485Z,97881.56
2022-12-14T17:08:06.610Z,97875.90
2022-12-14T17:10:15.386Z,97866.39
2022-12-14T17:12:18.861Z,97849.61
2022-12-14T17:14:23.270Z,97848.76
2022-12-14T17:16:26.677Z,97846.91
2022-12-14T17:18:33.228Z,97847.14
2022-12-14T17:20:37.629Z,97854.85
2022-12-14T17:22:51.214Z,97867.56
2022-12-14T17:24:54.302Z,97858.64
2022-12-14T17:26:57.804Z,97858.24
2022-12-14T17:29:01.424Z,97865.35
2022-12-14T17:31:06.046Z,97856.60
2022-12-14T17:33:11.295Z,97852.61
2022-12-14T17:35:17.037Z,97849.42
2022-12-14T17:37:22.810Z,97846.13
2022-12-14T17:39:26.146Z,97849.27
2022-12-14T17:41:29.548Z,97848.44
2022-12-14T17:43:34.309Z,97845.48
2022-12-14T17:45:41.494Z,97840.52
2022-12-14T17:47:45.189Z,97846.11
2022-12-14T17:49:49.102Z,97844.58
2022-12-14T17:51:54.248Z,97840.55
2022-12-14T17:53:58.729Z,97834.13
2022-12-14T17:56:06.316Z,97834.85
2022-12-14T17:58:10.377Z,97834.98
2022-12-14T18:00:23.244Z,97834.50
2022-12-14T18:02:31.089Z,97835.74
2022-12-14T18:04:34.725Z,97832.04
2022-12-14T18:06:38.467Z,97839.02
2022-12-14T18:08:45.131Z,97839.98
2022-12-14T18:10:52.342Z,97840.15
2022-12-14T18:12:59.411Z,97843.50
2022-12-14T18:15:04.356Z,97840.12
2022-12-14T18:17:11.617Z,97845.44
2022-12-14T18:19:15.777Z,97838.61
2022-12-14T18:21:23.830Z,97835.55
2022-12-14T18:23:30.691Z,97834.86
2022-12-14T18:25:37.182Z,97841.66
2022-12-14T18:27:42.721Z,97837.27
2022-12-14T18:29:49.173Z,97845.55
2022-12-14T18:31:53.405Z,97846.29
2022-12-14T18:33:58.147Z,97854.25
2022-12-14T18:36:02.750Z,97855.71
2022-12-14T18:38:10.418Z,97854.40
2022-12-14T18:40:19.458Z,97859.50
2022-12-14T18:42:24.432Z,97860.13
2022-12-14T18:44:32.789Z,97850.36
2022-12-14T18:46:37.454Z,97853.63
2022-12-14T18:48:44.755Z,97853.70
2022-12-14T18:50:49.710Z,97848.61
2022-12-14T18:52:56.959Z,97854.48
2022-12-14T18:55:04.866Z,97855.16
2022-12-14T18:57:08.417Z,97854.56
2022-12-14T18:59:14.089Z,97851.48
2022-12-14T19:01:21.332Z,97843.41
2022-12-14T19:03:27.208Z,97860.89
2022-12-14T19:05:32.743Z,97842.08
2022-12-14T19:07:38.983Z,97859.29
2022-12-14T19:09:44.474Z,97862.73
2022-12-14T19:11:49.969Z,97865.69
2022-12-14T19:13:58.863Z,97868.57
2022-12-14T19:16:04.835Z,97868.34
2022-12-14T19:18:12.259Z,97866.46
2022-12-14T19:20:19.168Z,97874.52
2022-12-14T19:22:24.696Z,97875.53
2022-12-14T19:24:29.485Z,97877.02
2022-12-14T19:26:39.576Z,97885.59
2022-12-14T19:28:44.918Z,97888.19
2022-12-14T19:30:50.021Z,97895.61
2022-12-14T19:32:58.265Z,97903.09
2022-12-14T19:35:06.879Z,97909.18
2022-12-14T19:37:12.348Z,97883.69
2022-12-14T19:39:17.004Z,97902.95
2022-12-14T19:41:29.915Z,97896.74
2022-12-14T19:43:38.180Z,97889.38
2022-12-14T19:45:43.181Z,97894.39
2022-12-14T19:47:49.099Z,97893.52
2022-12-14T19:49:53.650Z,97893.45
2022-12-14T19:52:01.141Z,97892.73
2022-12-14T19:54:06.297Z,97896.31
2022-12-14T19:56:17.802Z,97896.08
2022-12-14T19:58:24.343Z,97901.33
2022-12-14T20:00:34.298Z,97903.94
2022-12-14T20:02:40.269Z,97912.70
2022-12-14T20:04:49.265Z,97911.80
2022-12-14T20:06:54.417Z,97909.89
2022-12-14T20:09:00.529Z,97908.45
2022-12-14T20:11:08.938Z,97912.29
2022-12-14T20:13:13.081Z,97911.88
2022-12-14T20:15:17.609Z,97914.17
2022-12-14T20:17:26.742Z,97909.36
2022-12-14T20:19:31.315Z,97909.57
2022-12-14T20:21:37.714Z,97909.44
2022-12-14T20:23:43.231Z,97904.18
2022-12-14T20:25:47.677Z,97907.13
2022-12-14T20:27:54.625Z,97924.28
2022-12-14T20:30:01.617Z,97932.59
2022-12-14T20:32:10.392Z,97926.52
2022-12-14T20:34:16.477Z,97924.42
2022-12-14T20:36:21.207Z,97918.02
2022-12-14T20:38:28.516Z,97914.10
2022-12-14T20:40:38.086Z,97920.58
2022-12-14T20:42:48.366Z,97915.78
2022-12-14T20:44:52.621Z,97915.46
2022-12-14T20:46:58.602Z,97912.92
2022-12-14T20:49:05.974Z,97916.44
2022-12-14T20:51:18.060Z,97921.46
2022-12-14T20:53:26.132Z,97919.87
2022-12-14T20:55:31.164Z,97919.88
2022-12-14T20:57:34.698Z,97915.45
2022-12-14T20:59:38.578Z,97917.07
2022-12-14T21:01:43.965Z,97915.23
2022-12-14T21:03:48.891Z,97913.61
2022-12-14T21:05:55.674Z,97919.27
2022-12-14T21:07:59.639Z,97917.98
2022-12-14T21:10:03.323Z,97924.48
2022-12-14T21:12:09.254Z,97920.57
2022-12-14T21:14:12.565Z,97931.73
2022-12-14T21:16:16.117Z,97922.10
2022-12-14T21:18:19.465Z,97930.42
2022-12-14T21:20:24.309Z,97933.86
2022-12-14T21:22:28.768Z,97941.71
2022-12-14T21:26:55.664Z,97939.80
2022-12-14T21:28:59.117Z,97940.85
2022-12-14T21:31:04.757Z,97936.73
2022-12-14T21:33:07.353Z,97933.79
2022-12-14T21:35:11.465Z,97930.92
2022-12-14T21:37:14.937Z,97927.29
2022-12-14T21:39:19.260Z,97924.08
2022-12-14T21:41:22.315Z,97928.92
2022-12-14T21:43:24.959Z,97934.25
2022-12-14T21:45:27.654Z,97933.06
2022-12-14T21:47:30.322Z,97929.30
2022-12-14T21:49:34.706Z,97931.90
2022-12-14T21:51:38.022Z,97932.66
2022-12-14T21:53:40.943Z,97937.58
2022-12-14T21:55:48.890Z,97934.49
2022-12-14T21:57:51.570Z,97937.95
2022-12-14T21:59:54.358Z,97938.39
2022-12-14T22:01:58.418Z,97941.64
2022-12-14T22:04:01.261Z,97948.11
2022-12-14T22:06:07.754Z,97948.70
2022-12-14T22:08:10.491Z,97949.75
2022-12-14T22:10:13.251Z,97951.99
2022-12-14T22:12:16.860Z,97952.66
2022-12-14T22:14:21.501Z,97949.05
2022-12-14T22:16:24.802Z,97942.42
2022-12-14T22:18:27.526Z,97938.21
2022-12-14T22:20:30.207Z,97939.13
2022-12-14T22:22:33.368Z,97937.70
2022-12-14T22:24:36.026Z,97937.65
2022-12-14T22:26:39.652Z,97935.88
2022-12-14T22:28:42.403Z,97942.70
2022-12-14T22:30:44.980Z,97940.78
2022-12-14T22:32:47.688Z,97953.08
2022-12-14T22:34:50.323Z,97952.79
2022-12-14T22:36:52.990Z,97950.05
2022-12-14T22:38:56.344Z,97951.38
2022-12-14T22:41:02.736Z,97942.44
2022-12-14T22:43:05.986Z,97938.52
2022-12-14T22:45:10.152Z,97929.23
2022-12-14T22:47:12.753Z,97937.85
2022-12-14T22:49:16.199Z,97932.05
2022-12-14T22:51:19.518Z,97931.80
2022-12-14T22:53:22.144Z,97939.27
2022-12-14T22:55:30.142Z,97942.85
2022-12-14T22:57:37.089Z,97940.83
2022-12-14T22:59:46.906Z,97942.64
2022-12-14T23:01:50.565Z,97944.02
2022-12-14T23:03:53.501Z,97953.32
2022-12-14T23:06:01.882Z,97952.56
2022-12-14T23:08:05.775Z,97958.04
2022-12-14T23:10:09.490Z,97958.14
2022-12-14T23:12:13.282Z,97951.19
2022-12-14T23:14:16.172Z,97954.33
2022-12-14T23:16:18.816Z,97954.34
2022-12-14T23:18:21.533Z,97957.35
2022-12-14T23:20:24.174Z,97956.53
2022-12-14T23:22:27.380Z,97960.70
2022-12-14T23:24:30.546Z,97969.04
2022-12-14T23:26:33.523Z,97969.90
2022-12-14T23:28:36.193Z,97965.46
2022-12-14T23:30:38.892Z,97967.26
2022-12-14T23:32:41.497Z,97980.62
2022-12-14T23:34:44.284Z,97977.94
2022-12-14T23:36:50.950Z,97981.77
2022-12-14T23:38:53.923Z,97981.77
2022-12-14T23:40:59.807Z,97978.52
2022-12-14T23:43:08.583Z,97980.84
2022-12-14T23:45:11.298Z,97982.82
2022-12-14T23:47:13.865Z,97984.90
2022-12-14T23:49:16.487Z,97980.02
2022-12-14T23:51:19.115Z,97986.00
2022-12-14T23:53:21.676Z,97990.48
2022-12-14T23:55:24.290Z,97995.27
2022-12-14T23:57:27.162Z,98001.73
2022-12-14T23:59:32.213Z,98004.85
